Time;durP1;ratioP1;P1;durP2;ratioP2;P2;SDS_P1;SDS_P2;PMS_P1;PMS_P2;Temp;Humidity;BMP_temperature;BMP_pressure;BME280_temperature;BME280_humidity;BME280_pressure;Samples;Min_cycle;Max_cycle;Signal;HPM_P1;HPM_P2
2021/12/25 00:00:05;;;;;;;21.08;7.97;;;;;;;-12.77;69.37;98071.16;4930314;29;20047;-86
2021/12/25 00:02:34;;;;;;;18.73;8.60;;;;;;;-13.11;69.28;98028.72;4942388;29;20158;-89
2021/12/25 00:05:02;;;;;;;27.05;9.07;;;;;;;-12.84;69.21;98069.91;4925067;29;20527;-86
2021/12/25 00:07:29;;;;;;;18.73;8.45;;;;;;;-13.09;69.42;98017.13;4932443;29;20652;-86
2021/12/25 00:09:58;;;;;;;31.23;9.35;;;;;;;-12.99;69.20;98037.06;4969806;28;20102;-87
2021/12/25 00:12:25;;;;;;;17.35;7.72;;;;;;;-13.01;69.32;98026.03;4963159;29;20047;-87
2021/12/25 00:14:52;;;;;;;20.35;8.00;;;;;;;-13.20;69.77;97992.94;4961254;29;20501;-85
2021/12/25 00:17:20;;;;;;;25.20;9.00;;;;;;;-12.81;69.18;98034.88;4945843;29;20636;-87
2021/12/25 00:19:47;;;;;;;18.38;8.35;;;;;;;-12.84;69.48;98034.69;4961274;29;20491;-87
2021/12/25 00:22:16;;;;;;;22.48;8.25;;;;;;;-12.89;69.48;98032.63;4960457;29;20511;-88
2021/12/25 00:24:45;;;;;;;18.35;8.32;;;;;;;-12.88;69.50;98017.66;4942741;29;20074;-90
2021/12/25 00:35:15;;;;;;;21.73;9.15;;;;;;;-12.86;70.05;97995.09;4959118;29;20051;-89
2021/12/25 00:37:42;;;;;;;26.52;9.90;;;;;;;-12.74;69.85;98000.94;4959422;29;20055;-90
2021/12/25 00:40:10;;;;;;;22.73;8.43;;;;;;;-12.67;69.51;97984.59;4944866;29;20055;-89
2021/12/25 00:42:37;;;;;;;23.42;8.82;;;;;;;-12.70;69.77;97987.78;4960608;29;20051;-85
2021/12/25 00:45:04;;;;;;;22.58;9.10;;;;;;;-12.61;69.82;97977.44;4960005;29;20078;-87
2021/12/25 00:47:35;;;;;;;22.50;9.55;;;;;;;-12.64;69.61;97950.44;4943354;29;20054;-90
2021/12/25 00:50:03;;;;;;;18.52;8.57;;;;;;;-12.51;69.58;97962.16;4928476;29;20051;-88
2021/12/25 00:52:30;;;;;;;26.55;9.80;;;;;;;-12.66;69.52;97931.00;4942464;29;20059;-88
2021/12/25 00:54:57;;;;;;;24.35;9.63;;;;;;;-12.46;69.68;97938.13;4943599;29;20097;-87
2021/12/25 00:57:24;;;;;;;20.75;9.23;;;;;;;-12.43;69.71;97920.72;4942336;29;20050;-86
2021/12/25 00:59:51;;;;;;;23.90;9.85;;;;;;;-12.50;69.75;97903.50;4938003;29;20082;-87
2021/12/25 01:02:18;;;;;;;26.40;9.68;;;;;;;-12.56;69.87;97895.56;4958410;29;20058;-86
2021/12/25 01:04:47;;;;;;;18.42;7.70;;;;;;;-12.39;69.68;97905.03;4941605;29;20527;-87
2021/12/25 01:07:14;;;;;;;23.50;9.38;;;;;;;-12.40;70.02;97907.47;4958103;28;20065;-87
2021/12/25 01:09:46;;;;;;;21.45;9.10;;;;;;;-12.33;69.83;97902.00;4925361;29;20059;-87
2021/12/25 01:12:13;;;;;;;27.02;9.05;;;;;;;-12.43;69.83;97880.47;4943328;29;20051;-86
2021/12/25 01:14:49;;;;;;;30.63;9.85;;;;;;;-12.50;69.99;97870.78;4958454;29;20059;-87
2021/12/25 01:20:39;;;;;;;26.40;9.88;;;;;;;-12.42;70.36;97871.28;4943299;29;20058;-87
2021/12/25 01:31:17;;;;;;;18.08;7.50;;;;;;;-12.31;70.73;97847.63;4960096;29;20043;-87
2021/12/25 01:39:50;;;;;;;20.70;9.05;;;;;;;-12.40;70.58;97804.28;4957736;29;20055;-86
2021/12/25 01:49:07;;;;;;;23.52;8.88;;;;;;;-12.21;70.74;97822.22;4953735;29;20059;-87
2021/12/25 01:51:34;;;;;;;22.30;9.10;;;;;;;-12.18;71.23;97824.03;4962026;29;20062;-88
2021/12/25 01:54:02;;;;;;;21.85;8.95;;;;;;;-12.28;71.23;97789.03;4946073;29;20051;-86
2021/12/25 01:56:29;;;;;;;22.17;8.88;;;;;;;-12.38;71.46;97772.53;4943907;29;20058;-86
2021/12/25 01:58:57;;;;;;;31.38;9.25;;;;;;;-12.16;71.40;97803.22;4960917;29;20106;-89
2021/12/25 02:01:24;;;;;;;23.67;9.07;;;;;;;-12.21;71.28;97786.13;4947240;29;20051;-88
2021/12/25 02:03:51;;;;;;;19.45;7.88;;;;;;;-12.14;71.38;97807.47;4980784;28;20039;-88
2021/12/25 02:06:23;;;;;;;21.08;8.50;;;;;;;-12.20;71.50;97772.75;4964044;29;20116;-83
2021/12/25 02:08:49;;;;;;;21.45;8.70;;;;;;;-12.16;70.87;97767.97;4938116;29;20055;-85
2021/12/25 02:11:17;;;;;;;21.33;8.80;;;;;;;-12.07;71.17;97782.75;4980809;28;20057;-82
2021/12/25 02:13:46;;;;;;;19.13;8.93;;;;;;;-12.03;71.44;97766.16;4963942;28;20098;-86
2021/12/25 02:16:21;;;;;;;19.95;7.70;;;;;;;-12.02;71.11;97756.19;4948897;29;20043;-86
2021/12/25 02:19:12;;;;;;;21.05;8.40;;;;;;;-11.92;71.13;97759.22;4947959;29;20035;-87
2021/12/25 02:21:57;;;;;;;19.63;9.35;;;;;;;-11.97;71.42;97746.38;4950359;28;20046;-86
2021/12/25 02:24:24;;;;;;;20.58;8.20;;;;;;;-11.88;71.23;97741.00;4981139;28;20035;-87
2021/12/25 02:26:51;;;;;;;23.63;9.23;;;;;;;-11.85;71.16;97736.97;4949128;28;20031;-89
2021/12/25 02:29:23;;;;;;;20.67;8.38;;;;;;;-12.05;71.26;97709.81;4964556;29;20055;-88
2021/12/25 02:31:52;;;;;;;22.70;9.17;;;;;;;-11.86;71.34;97749.47;4962032;29;20066;-90
2021/12/25 02:34:19;;;;;;;20.98;8.35;;;;;;;-12.04;71.59;97699.84;4928310;29;20055;-91
2021/12/25 02:36:49;;;;;;;21.23;7.75;;;;;;;-11.84;71.23;97718.56;4913639;29;20059;-89
2021/12/25 02:39:18;;;;;;;17.92;7.68;;;;;;;-11.82;71.63;97719.50;4960943;29;20055;-91
2021/12/25 02:41:44;;;;;;;22.75;8.32;;;;;;;-11.81;71.51;97717.84;4943921;29;20051;-90
2021/12/25 02:44:11;;;;;;;17.83;6.82;;;;;;;-11.78;71.27;97700.41;4912381;29;20062;-90
2021/12/25 02:46:44;;;;;;;19.45;7.85;;;;;;;-11.85;71.69;97695.78;4944717;29;20051;-89
2021/12/25 02:49:12;;;;;;;21.23;8.23;;;;;;;-11.81;71.57;97695.19;4927285;29;20075;-90
2021/12/25 02:51:45;;;;;;;19.75;7.78;;;;;;;-11.78;71.31;97676.09;4926418;29;20059;-87
2021/12/25 02:54:13;;;;;;;15.85;7.10;;;;;;;-11.77;71.45;97671.91;4941147;29;20061;-87
2021/12/25 02:56:41;;;;;;;17.45;7.47;;;;;;;-11.80;71.17;97660.03;4958545;29;20050;-86
2021/12/25 02:59:15;;;;;;;19.35;8.30;;;;;;;-11.80;71.70;97674.28;4913542;29;20067;-88
2021/12/25 03:02:10;;;;;;;15.25;7.22;;;;;;;-11.91;71.50;97630.91;4941606;29;20051;-90
2021/12/25 03:04:40;;;;;;;18.83;6.93;;;;;;;-11.79;71.89;97645.78;4924770;29;20062;-88
2021/12/25 03:07:08;;;;;;;15.67;8.33;;;;;;;-11.97;72.16;97621.34;4924011;29;20104;-84
2021/12/25 03:09:36;;;;;;;18.48;7.15;;;;;;;-11.86;72.26;97614.34;4923205;29;20146;-87
2021/12/25 03:12:06;;;;;;;22.90;8.13;;;;;;;-11.68;72.05;97632.09;4923489;29;20055;-88
2021/12/25 03:14:51;;;;;;;18.67;8.35;;;;;;;-11.69;71.91;97612.75;4954891;29;20062;-87
2021/12/25 03:17:18;;;;;;;18.67;8.05;;;;;;;-11.71;72.15;97605.91;4956140;29;20051;-88
2021/12/25 03:19:45;;;;;;;20.15;7.57;;;;;;;-11.62;71.96;97611.41;4939709;29;20427;-87
2021/12/25 03:22:13;;;;;;;23.25;7.78;;;;;;;-11.66;71.97;97596.94;4939436;29;20051;-87
2021/12/25 03:24:41;;;;;;;18.88;7.15;;;;;;;-11.67;71.81;97602.75;4923914;29;20439;-87
2021/12/25 03:27:08;;;;;;;16.67;7.30;;;;;;;-11.69;72.15;97586.69;4939636;29;20072;-88
2021/12/25 03:29:39;;;;;;;16.33;7.15;;;;;;;-11.74;71.76;97568.81;4939503;28;20059;-89
2021/12/25 03:32:08;;;;;;;21.05;7.25;;;;;;;-11.68;71.61;97580.84;4941485;29;20054;-86
2021/12/25 03:34:36;;;;;;;20.88;7.35;;;;;;;-11.54;71.82;97597.59;4924557;29;20048;-86
2021/12/25 03:37:04;;;;;;;15.95;6.93;;;;;;;-11.65;71.64;97573.47;4955745;29;20051;-84
2021/12/25 03:39:32;;;;;;;22.50;7.28;;;;;;;-11.52;71.67;97583.41;4955008;29;20065;-85
2021/12/25 03:41:59;;;;;;;18.98;7.57;;;;;;;-11.63;71.69;97552.63;4954500;29;20407;-85
2021/12/25 03:44:28;;;;;;;13.38;5.72;;;;;;;-11.46;72.17;97588.78;4923728;29;20146;-86
2021/12/25 03:47:00;;;;;;;18.27;6.95;;;;;;;-11.55;71.95;97560.56;4955387;29;20051;-86
2021/12/25 03:53:04;;;;;;;15.40;7.00;;;;;;;-11.40;71.87;97578.13;4923257;29;20055;-86
2021/12/25 03:57:53;;;;;;;19.05;7.05;;;;;;;-11.40;71.58;97560.50;4954892;29;20130;-87
2021/12/25 04:00:28;;;;;;;16.75;7.05;;;;;;;-11.52;72.28;97535.53;4955760;29;20455;-86
2021/12/25 04:03:01;;;;;;;16.73;6.80;;;;;;;-11.37;72.21;97548.94;4956304;29;20541;-85
2021/12/25 04:05:37;;;;;;;16.08;6.88;;;;;;;-11.37;72.09;97531.28;4955003;29;20118;-85
2021/12/25 04:08:11;;;;;;;19.23;6.60;;;;;;;-11.39;72.10;97534.53;4955597;29;20055;-84
2021/12/25 04:10:41;;;;;;;18.65;7.28;;;;;;;-11.32;72.31;97551.69;4969698;29;20118;-83
2021/12/25 04:13:12;;;;;;;18.27;7.05;;;;;;;-11.31;72.14;97522.28;4930824;29;20097;-86
2021/12/25 04:15:40;;;;;;;16.10;6.85;;;;;;;-11.25;72.51;97526.00;4957015;29;20142;-86
2021/12/25 04:18:08;;;;;;;15.18;6.95;;;;;;;-11.21;72.19;97527.88;4956080;29;20435;-84
2021/12/25 04:20:37;;;;;;;17.42;6.88;;;;;;;-11.29;72.65;97496.41;4957785;29;20051;-86
2021/12/25 04:23:08;;;;;;;16.02;7.00;;;;;;;-11.20;72.70;97501.91;4925667;29;20059;-86
2021/12/25 04:25:36;;;;;;;13.90;6.72;;;;;;;-11.06;72.51;97506.75;4922608;29;20062;-85
2021/12/25 04:28:14;;;;;;;12.65;6.50;;;;;;;-11.06;72.74;97492.47;4937952;29;20082;-86
2021/12/25 04:50:23;;;;;;;17.25;7.00;;;;;;;-10.83;73.29;97438.13;4924511;29;20059;-93
2021/12/25 05:04:21;;;;;;;14.32;6.22;;;;;;;-10.52;73.42;97440.44;4933214;29;20059;-86
2021/12/25 05:07:13;;;;;;;14.85;6.47;;;;;;;-10.68;72.96;97399.28;4956636;29;20054;-87
2021/12/25 05:09:40;;;;;;;16.13;6.63;;;;;;;-10.52;73.43;97432.88;4944495;29;20042;-88
2021/12/25 05:12:08;;;;;;;18.80;7.25;;;;;;;-10.41;73.28;97435.00;4942301;29;20135;-89
2021/12/25 05:14:35;;;;;;;20.10;8.02;;;;;;;-10.51;73.01;97405.97;4945817;29;20043;-88
2021/12/25 05:17:03;;;;;;;16.85;7.00;;;;;;;-10.29;72.88;97438.09;4927073;29;20051;-87
2021/12/25 05:19:30;;;;;;;16.42;7.18;;;;;;;-10.43;73.00;97402.16;4909960;29;20464;-85
2021/12/25 05:21:57;;;;;;;13.25;5.75;;;;;;;-10.37;73.19;97407.44;4941794;29;20166;-88
2021/12/25 05:24:27;;;;;;;15.15;6.55;;;;;;;-10.25;72.95;97421.41;4955750;29;20136;-88
2021/12/25 05:26:57;;;;;;;17.92;7.13;;;;;;;-10.32;73.69;97418.66;4941208;29;20500;-86
2021/12/25 05:29:31;;;;;;;16.13;7.38;;;;;;;-10.21;73.29;97425.81;4929124;29;20055;-90
2021/12/25 05:31:59;;;;;;;15.13;6.13;;;;;;;-10.17;73.21;97410.00;4943437;29;20150;-86
2021/12/25 05:34:40;;;;;;;15.15;6.22;;;;;;;-10.11;73.18;97398.53;4926970;29;20059;-85
2021/12/25 05:37:29;;;;;;;16.83;6.72;;;;;;;-10.22;73.23;97376.09;4932609;29;20079;-85
2021/12/25 05:40:14;;;;;;;14.27;6.72;;;;;;;-10.06;73.26;97403.78;4925557;29;20059;-89
2021/12/25 05:42:47;;;;;;;15.15;6.50;;;;;;;-10.11;73.16;97392.56;4927391;29;20475;-86
2021/12/25 05:45:17;;;;;;;15.07;6.97;;;;;;;-10.00;73.38;97401.50;4926735;29;20047;-86
2021/12/25 05:48:22;;;;;;;15.20;6.82;;;;;;;-10.17;73.91;97378.03;4930932;29;20058;-83
2021/12/25 05:51:08;;;;;;;14.48;6.10;;;;;;;-9.92;73.37;97391.72;4934004;29;20059;-87
2021/12/25 05:53:52;;;;;;;16.48;7.18;;;;;;;-9.84;73.44;97379.44;4934495;29;20431;-85
2021/12/25 05:56:53;;;;;;;15.48;7.03;;;;;;;-9.79;72.99;97368.72;4892591;29;20083;-85
2021/12/25 05:59:32;;;;;;;16.35;6.95;;;;;;;-9.75;73.00;97363.00;4963948;29;20079;-87
2021/12/25 06:02:35;;;;;;;18.35;6.78;;;;;;;-9.70;72.98;97363.19;4855421;29;20053;-91
2021/12/25 06:05:06;;;;;;;15.55;6.60;;;;;;;-9.69;73.53;97354.81;4917314;29;20047;-88
2021/12/25 06:07:34;;;;;;;18.25;7.57;;;;;;;-9.78;73.05;97336.75;4967226;29;20055;-86
2021/12/25 06:10:05;;;;;;;14.77;6.57;;;;;;;-9.65;73.23;97345.72;4934452;29;20073;-91
2021/12/25 06:12:32;;;;;;;18.00;7.53;;;;;;;-9.66;73.08;97343.97;4979160;28;20055;-88
2021/12/25 06:15:02;;;;;;;15.50;7.10;;;;;;;-9.62;73.60;97344.16;4947897;29;20051;-88
2021/12/25 06:17:52;;;;;;;19.85;7.72;;;;;;;-9.55;72.77;97351.22;4958516;29;20591;-89
2021/12/25 06:20:29;;;;;;;15.15;6.50;;;;;;;-9.56;72.98;97328.41;4964221;28;20062;-89
2021/12/25 06:22:59;;;;;;;18.65;7.05;;;;;;;-9.64;73.29;97307.00;4963022;29;20073;-90
2021/12/25 06:25:46;;;;;;;18.63;7.93;;;;;;;-9.52;73.17;97307.50;4967773;29;20079;-84
2021/12/25 06:28:33;;;;;;;18.80;7.50;;;;;;;-9.73;73.59;97270.44;4970694;29;20051;-83
2021/12/25 06:31:18;;;;;;;17.33;7.80;;;;;;;-9.21;72.92;97321.38;4971769;29;20047;-84
2021/12/25 06:33:57;;;;;;;18.55;7.35;;;;;;;-9.32;73.11;97291.47;4950912;29;20065;-87
2021/12/25 06:36:53;;;;;;;19.73;7.53;;;;;;;-9.25;73.03;97291.69;4899025;29;20468;-85
2021/12/25 06:39:40;;;;;;;18.45;7.53;;;;;;;-9.03;72.71;97316.16;4954007;29;20051;-84
2021/12/25 06:42:12;;;;;;;17.02;6.55;;;;;;;-9.04;73.06;97311.91;4965253;29;20404;-87
2021/12/25 06:44:41;;;;;;;21.38;8.32;;;;;;;-9.02;72.77;97287.56;4942361;29;20525;-88
2021/12/25 06:47:10;;;;;;;17.25;7.75;;;;;;;-9.25;72.89;97254.63;4948112;29;20153;-88
2021/12/25 06:49:44;;;;;;;16.55;7.88;;;;;;;-8.93;73.35;97283.69;4963310;29;20102;-91
2021/12/25 06:52:41;;;;;;;14.20;6.80;;;;;;;-8.80;72.88;97289.22;4959399;29;20404;-89
2021/12/25 06:55:27;;;;;;;17.83;7.50;;;;;;;-8.67;72.92;97288.88;4957223;29;20062;-89
2021/12/25 06:58:32;;;;;;;18.00;8.18;;;;;;;-8.83;72.59;97253.69;4917468;29;20401;-90
2021/12/25 07:01:20;;;;;;;19.30;7.43;;;;;;;-8.71;72.74;97272.72;4932425;29;20070;-87
2021/12/25 07:03:48;;;;;;;19.35;8.43;;;;;;;-8.88;72.60;97223.16;4933554;29;20459;-85
2021/12/25 07:06:37;;;;;;;20.15;8.35;;;;;;;-8.55;72.58;97256.41;4962736;28;20066;-89
2021/12/25 07:09:28;;;;;;;14.80;7.22;;;;;;;-8.62;72.79;97253.59;4968300;28;20035;-90
2021/12/25 07:11:56;;;;;;;17.65;7.65;;;;;;;-8.55;72.83;97258.09;4961107;29;20055;-85
2021/12/25 07:14:42;;;;;;;16.17;7.80;;;;;;;-8.35;72.57;97274.81;4935801;28;20046;-88
2021/12/25 07:17:20;;;;;;;22.40;9.55;;;;;;;-8.50;72.09;97237.19;4978700;28;20043;-88
2021/12/25 07:20:03;;;;;;;22.10;9.80;;;;;;;-8.20;72.46;97266.91;4957685;29;20102;-88
2021/12/25 07:22:50;;;;;;;22.52;9.45;;;;;;;-8.51;72.50;97194.09;4958541;29;20043;-86
2021/12/25 07:25:34;;;;;;;18.75;8.60;;;;;;;-8.11;72.33;97249.50;4960094;29;20137;-87
2021/12/25 07:28:23;;;;;;;19.25;8.27;;;;;;;-8.10;72.07;97253.75;4927608;29;20043;-90
2021/12/25 07:30:51;;;;;;;16.48;7.95;;;;;;;-8.48;72.17;97195.06;4923589;29;20061;-85
2021/12/25 07:33:21;;;;;;;21.13;8.65;;;;;;;-8.19;72.28;97250.03;4940188;29;20078;-92
2021/12/25 07:35:52;;;;;;;18.75;8.95;;;;;;;-8.26;72.58;97223.63;4942691;29;20055;-90
2021/12/25 07:38:20;;;;;;;18.95;8.80;;;;;;;-8.05;72.26;97246.31;4941055;29;20051;-86
2021/12/25 07:40:48;;;;;;;18.60;8.25;;;;;;;-8.03;72.31;97230.34;4924161;29;20054;-87
2021/12/25 07:43:17;;;;;;;20.80;9.18;;;;;;;-7.78;72.18;97230.31;4959916;29;20086;-89
2021/12/25 07:46:13;;;;;;;19.88;8.45;;;;;;;-7.80;72.02;97219.28;4942414;29;20059;-90
2021/12/25 07:48:42;;;;;;;21.73;8.38;;;;;;;-7.82;72.12;97221.75;4953951;29;20055;-88
2021/12/25 07:51:09;;;;;;;16.98;8.07;;;;;;;-7.74;72.19;97225.41;4957054;29;20162;-89
2021/12/25 07:53:36;;;;;;;18.60;8.45;;;;;;;-7.64;71.81;97232.47;4956896;29;20051;-89
2021/12/25 07:56:06;;;;;;;18.98;8.50;;;;;;;-7.69;72.09;97228.06;4940899;29;20043;-89
2021/12/25 07:58:33;;;;;;;18.33;8.18;;;;;;;-7.82;72.09;97207.38;4959075;28;20058;-85
2021/12/25 08:01:00;;;;;;;21.50;8.90;;;;;;;-7.71;72.02;97239.84;4955698;29;20114;-87
2021/12/25 08:03:27;;;;;;;19.25;8.80;;;;;;;-7.72;72.31;97228.84;4956963;29;20055;-84
2021/12/25 08:05:57;;;;;;;17.67;8.35;;;;;;;-7.76;72.26;97191.53;4955598;29;20059;-85
2021/12/25 08:08:24;;;;;;;18.70;8.73;;;;;;;-7.52;72.03;97232.00;4963393;28;20089;-87
2021/12/25 08:10:51;;;;;;;22.73;9.32;;;;;;;-7.52;72.49;97219.34;4943813;28;20065;-82
2021/12/25 08:13:24;;;;;;;18.83;8.30;;;;;;;-7.52;71.99;97218.47;4981909;28;20057;-84
2021/12/25 08:15:51;;;;;;;21.10;9.50;;;;;;;-7.57;72.57;97212.38;4988038;28;20050;-85
2021/12/25 08:18:18;;;;;;;20.30;8.23;;;;;;;-7.32;72.25;97217.41;4992628;28;20050;-80
2021/12/25 08:21:06;;;;;;;19.83;9.38;;;;;;;-7.21;72.46;97220.28;4948433;28;20110;-81
2021/12/25 08:23:59;;;;;;;24.92;10.70;;;;;;;-7.13;71.68;97215.44;4963326;28;20078;-80
2021/12/25 08:26:47;;;;;;;17.08;8.60;;;;;;;-7.02;71.70;97211.56;4987174;28;20050;-80
2021/12/25 08:29:36;;;;;;;19.00;8.38;;;;;;;-7.00;71.77;97200.63;4995029;28;20077;-82
2021/12/25 08:32:25;;;;;;;21.23;9.02;;;;;;;-6.77;72.11;97202.09;4991758;28;20042;-84
2021/12/25 08:35:28;;;;;;;18.52;8.30;;;;;;;-6.69;70.99;97186.28;4941446;29;20080;-86
2021/12/25 08:37:56;;;;;;;21.95;8.68;;;;;;;-6.72;71.68;97180.25;4944902;28;20055;-83
2021/12/25 08:40:24;;;;;;;18.35;8.13;;;;;;;-6.56;71.46;97190.03;4961787;28;20050;-85
2021/12/25 08:43:00;;;;;;;19.67;8.32;;;;;;;-6.44;71.55;97185.25;4962599;28;20102;-84
2021/12/25 08:48:17;;;;;;;16.67;8.27;;;;;;;-6.08;70.48;97193.84;4961805;28;20054;-84
2021/12/25 08:50:56;;;;;;;21.95;8.57;;;;;;;-6.22;71.04;97175.69;4963300;28;20135;-86
2021/12/25 08:53:25;;;;;;;18.05;8.50;;;;;;;-6.22;71.04;97191.78;4980397;28;20058;-85
2021/12/25 08:55:55;;;;;;;18.30;8.77;;;;;;;-6.25;71.26;97167.97;4979230;28;20051;-87
2021/12/25 08:58:30;;;;;;;17.08;8.20;;;;;;;-6.11;70.97;97191.19;4946044;28;20050;-86
2021/12/25 09:01:18;;;;;;;19.95;8.77;;;;;;;-6.45;70.63;97122.59;4946689;28;20051;-87
2021/12/25 09:04:20;;;;;;;21.60;10.07;;;;;;;-6.29;71.10;97156.88;4964051;28;20582;-88
2021/12/25 09:06:48;;;;;;;19.63;9.23;;;;;;;-6.14;71.32;97174.19;4983772;28;20149;-87
2021/12/25 09:09:15;;;;;;;22.27;9.98;;;;;;;-6.06;70.94;97169.31;4965990;28;20113;-85
2021/12/25 09:11:42;;;;;;;23.45;10.02;;;;;;;-5.97;71.26;97179.72;4979719;28;20055;-86
2021/12/25 09:14:13;;;;;;;20.55;9.98;;;;;;;-6.04;70.66;97166.00;4955594;28;20507;-87
2021/12/25 09:16:41;;;;;;;22.77;9.73;;;;;;;-6.01;70.67;97163.50;4982261;28;20082;-85
2021/12/25 09:19:08;;;;;;;19.75;10.27;;;;;;;-5.57;70.21;97186.59;4965779;28;20553;-86
2021/12/25 09:21:36;;;;;;;23.00;9.82;;;;;;;-5.85;69.87;97118.09;4946558;28;20054;-85
2021/12/25 09:24:04;;;;;;;22.98;9.98;;;;;;;-5.38;69.77;97182.81;4927129;28;20474;-84
2021/12/25 09:26:31;;;;;;;20.95;10.60;;;;;;;-5.48;69.42;97162.22;4959893;29;20066;-85
2021/12/25 09:28:59;;;;;;;17.85;9.52;;;;;;;-5.44;69.44;97149.59;4960587;28;20062;-86
2021/12/25 09:31:26;;;;;;;19.65;9.57;;;;;;;-5.33;69.26;97164.22;4944568;29;20431;-86
2021/12/25 09:33:54;;;;;;;20.05;10.00;;;;;;;-5.33;69.27;97157.47;4942068;29;20082;-85
2021/12/25 09:36:22;;;;;;;20.73;10.48;;;;;;;-5.25;69.17;97183.97;4958287;29;20177;-85
2021/12/25 09:38:50;;;;;;;24.05;11.15;;;;;;;-5.51;69.53;97149.41;4942534;29;20079;-85
2021/12/25 09:41:20;;;;;;;23.88;12.15;;;;;;;-5.21;69.79;97187.41;4959658;29;20051;-86
2021/12/25 09:43:49;;;;;;;24.10;11.15;;;;;;;-5.07;69.34;97200.47;4943459;29;20058;-88
2021/12/25 09:46:20;;;;;;;24.58;11.02;;;;;;;-5.25;69.26;97142.34;4943042;29;20055;-87
2021/12/25 09:48:50;;;;;;;22.00;10.20;;;;;;;-4.88;69.42;97183.88;4941971;29;20047;-88
2021/12/25 09:51:18;;;;;;;24.60;11.00;;;;;;;-4.78;68.80;97193.44;4939695;29;20059;-88
2021/12/25 09:54:01;;;;;;;22.08;10.57;;;;;;;-4.73;68.63;97181.66;4949924;29;20295;-87
2021/12/25 09:56:29;;;;;;;23.13;11.23;;;;;;;-4.75;68.42;97168.88;4951969;29;20111;-88
2021/12/25 09:59:07;;;;;;;22.80;10.63;;;;;;;-4.88;68.75;97166.94;4926973;29;20047;-85
2021/12/25 10:01:38;;;;;;;21.88;11.88;;;;;;;-4.62;68.19;97176.78;4921010;29;20435;-87
2021/12/25 10:04:12;;;;;;;20.90;10.38;;;;;;;-4.67;68.12;97184.31;4922991;29;20073;-88
2021/12/25 10:06:44;;;;;;;25.08;10.45;;;;;;;-4.83;67.93;97162.78;4957480;28;20059;-86
2021/12/25 10:09:17;;;;;;;20.02;10.45;;;;;;;-4.73;68.47;97199.50;4927264;29;20052;-85
2021/12/25 10:12:03;;;;;;;26.27;11.20;;;;;;;-4.76;68.04;97207.91;4928738;29;20083;-86
2021/12/25 10:14:40;;;;;;;22.60;10.60;;;;;;;-4.81;68.14;97190.84;4943564;29;20130;-87
2021/12/25 10:17:19;;;;;;;26.70;11.48;;;;;;;-4.75;67.89;97196.91;4940585;29;20057;-88
2021/12/25 10:20:16;;;;;;;26.02;11.45;;;;;;;-4.98;67.74;97198.09;4952569;29;20053;-90
2021/12/25 10:23:06;;;;;;;21.42;10.18;;;;;;;-5.46;67.73;97130.88;4967160;29;20050;-85
2021/12/25 10:25:44;;;;;;;24.80;11.73;;;;;;;-5.38;68.19;97170.09;4950559;29;20048;-88
2021/12/25 10:28:14;;;;;;;23.02;11.40;;;;;;;-5.22;68.68;97198.44;4930512;29;20051;-85
2021/12/25 10:30:47;;;;;;;42.65;18.92;;;;;;;-5.40;68.34;97187.00;4943827;29;20055;-88
2021/12/25 10:33:27;;;;;;;29.67;12.93;;;;;;;-5.35;68.34;97202.38;4944160;29;20055;-86
2021/12/25 10:36:11;;;;;;;24.17;11.40;;;;;;;-5.25;68.38;97233.97;4938764;29;20054;-88
2021/12/25 10:39:16;;;;;;;27.17;12.75;;;;;;;-5.37;68.86;97229.47;4938765;29;20118;-92
2021/12/25 10:42:34;;;;;;;23.33;11.60;;;;;;;-5.79;68.77;97190.28;4942256;28;20082;-85
2021/12/25 10:45:05;;;;;;;21.33;11.35;;;;;;;-5.23;68.10;97252.69;4958139;29;20039;-84
2021/12/25 10:47:33;;;;;;;24.00;11.52;;;;;;;-5.32;67.94;97253.31;4937426;29;20043;-84
2021/12/25 10:50:25;;;;;;;26.02;12.57;;;;;;;-5.43;68.43;97265.78;4975432;29;20054;-82
2021/12/25 10:52:55;;;;;;;24.42;11.85;;;;;;;-5.49;68.14;97265.63;4934476;29;20059;-84
2021/12/25 10:55:31;;;;;;;23.83;11.57;;;;;;;-5.87;68.66;97229.94;4931572;29;20114;-85
2021/12/25 10:57:59;;;;;;;24.95;12.10;;;;;;;-5.61;68.61;97286.56;4943314;29;20408;-89
2021/12/25 11:00:31;;;;;;;46.47;21.35;;;;;;;-5.54;68.56;97281.63;4944657;29;20058;-86
2021/12/25 11:03:09;;;;;;;40.78;19.00;;;;;;;-5.73;68.83;97243.00;4948442;29;20504;-87
2021/12/25 11:05:42;;;;;;;36.97;18.73;;;;;;;-5.53;68.35;97276.56;4951547;29;20047;-84
2021/12/25 11:08:15;;;;;;;38.65;16.88;;;;;;;-5.43;68.19;97290.38;4952215;29;20073;-86
2021/12/25 11:10:53;;;;;;;29.73;13.43;;;;;;;-5.41;68.07;97299.78;4954736;29;20523;-88
2021/12/25 11:13:38;;;;;;;25.77;12.45;;;;;;;-5.46;67.76;97311.53;4953421;29;20480;-91
2021/12/25 11:16:13;;;;;;;26.67;13.07;;;;;;;-5.48;68.84;97312.31;4933914;29;20154;-89
2021/12/25 11:22:01;;;;;;;26.00;11.90;;;;;;;-5.73;68.42;97311.66;4923993;29;20058;-90
2021/12/25 11:24:52;;;;;;;22.20;11.55;;;;;;;-5.87;68.85;97290.97;4923451;29;20055;-86
2021/12/25 11:27:20;;;;;;;25.77;12.85;;;;;;;-5.80;68.74;97310.66;4939554;29;20055;-85
2021/12/25 11:29:49;;;;;;;21.70;10.88;;;;;;;-5.70;68.69;97315.97;4972399;29;20063;-84
2021/12/25 11:32:21;;;;;;;22.13;10.60;;;;;;;-5.88;68.15;97312.13;4945029;29;20035;-86
2021/12/25 11:34:50;;;;;;;21.55;10.50;;;;;;;-5.77;68.43;97351.41;4961136;29;20055;-88
2021/12/25 11:37:19;;;;;;;19.88;9.98;;;;;;;-6.11;68.18;97308.09;4938728;29;20055;-88
2021/12/25 11:39:52;;;;;;;18.17;8.63;;;;;;;-5.89;68.56;97350.19;4938319;29;20048;-89
2021/12/25 11:42:21;;;;;;;21.58;9.88;;;;;;;-5.87;68.38;97348.56;4901177;29;20094;-91
2021/12/25 11:44:53;;;;;;;17.30;8.30;;;;;;;-5.85;67.83;97374.91;4902517;29;20075;-90
2021/12/25 11:47:33;;;;;;;18.70;8.55;;;;;;;-5.88;67.37;97360.41;4931623;29;20590;-87
2021/12/25 11:50:10;;;;;;;15.45;7.65;;;;;;;-6.00;67.37;97368.63;4933464;29;20051;-90
2021/12/25 11:52:47;;;;;;;19.05;8.25;;;;;;;-6.10;67.18;97360.69;4932311;29;20079;-88
2021/12/25 11:58:37;;;;;;;19.42;9.05;;;;;;;-6.29;66.77;97388.09;4935129;29;20059;-91
2021/12/25 12:01:32;;;;;;;22.33;9.43;;;;;;;-6.31;67.38;97404.13;4943208;28;20058;-91
2021/12/25 12:04:17;;;;;;;20.42;9.13;;;;;;;-6.66;66.87;97364.13;4953429;28;20078;-90
2021/12/25 12:06:48;;;;;;;19.60;8.93;;;;;;;-6.21;66.64;97409.50;4951114;28;20055;-89
2021/12/25 12:09:45;;;;;;;14.63;6.93;;;;;;;-6.16;66.20;97429.13;4962474;28;20510;-89
2021/12/25 12:12:41;;;;;;;14.75;7.10;;;;;;;-6.41;65.74;97411.47;4981355;28;20106;-90
2021/12/25 12:15:45;;;;;;;16.30;7.25;;;;;;;-6.47;66.44;97418.03;4966230;28;20054;-90
2021/12/25 12:18:40;;;;;;;18.63;7.63;;;;;;;-6.56;66.35;97454.16;4934045;29;20056;-89
2021/12/25 12:21:16;;;;;;;17.80;7.95;;;;;;;-6.61;66.71;97453.13;4944593;29;20062;-92
2021/12/25 12:26:47;;;;;;;17.98;6.85;;;;;;;-6.65;66.82;97472.47;4959401;29;20542;-89
2021/12/25 12:30:04;;;;;;;15.30;6.97;;;;;;;-6.63;67.20;97470.00;4960887;29;20059;-89
2021/12/25 12:32:44;;;;;;;16.10;7.50;;;;;;;-6.50;67.16;97496.66;4939898;29;20057;-90
2021/12/25 12:35:41;;;;;;;14.88;7.55;;;;;;;-6.50;67.93;97491.59;4929824;29;20051;-87
2021/12/25 12:38:40;;;;;;;16.92;7.63;;;;;;;-6.76;67.75;97455.19;4951446;29;20055;-87
2021/12/25 12:41:31;;;;;;;13.63;7.13;;;;;;;-6.63;67.69;97490.31;4960029;29;20138;-86
2021/12/25 12:44:15;;;;;;;16.33;6.25;;;;;;;-6.60;67.71;97511.63;4958323;29;20106;-86
2021/12/25 12:46:48;;;;;;;18.98;8.18;;;;;;;-6.59;67.97;97517.56;4957668;29;20463;-86
2021/12/25 12:49:38;;;;;;;17.90;8.05;;;;;;;-6.65;67.23;97513.13;4958404;29;20097;-85
2021/12/25 12:52:36;;;;;;;14.35;6.30;;;;;;;-6.65;67.42;97520.75;4939298;29;20059;-86
2021/12/25 12:55:34;;;;;;;26.02;9.50;;;;;;;-6.69;67.11;97530.75;4918270;29;20062;-87
2021/12/25 12:58:20;;;;;;;16.23;6.53;;;;;;;-7.00;66.84;97494.19;4922274;29;20099;-87
2021/12/25 13:00:56;;;;;;;19.13;7.75;;;;;;;-7.23;66.88;97499.34;4907086;29;20066;-87
2021/12/25 13:03:31;;;;;;;20.38;7.90;;;;;;;-7.14;67.25;97515.66;4929016;29;20451;-88
2021/12/25 13:06:06;;;;;;;14.48;6.13;;;;;;;-7.24;66.89;97520.41;4951283;29;20050;-87
2021/12/25 13:08:36;;;;;;;11.93;5.60;;;;;;;-7.38;67.64;97524.13;4967696;29;20117;-87
2021/12/25 13:11:21;;;;;;;14.52;5.28;;;;;;;-7.32;67.58;97554.78;4961461;28;20062;-87
2021/12/25 13:13:55;;;;;;;18.15;7.82;;;;;;;-7.24;67.85;97572.84;4971852;28;20055;-86
2021/12/25 13:16:26;;;;;;;23.90;9.07;;;;;;;-7.34;67.81;97558.09;4993539;28;20058;-92